createdAt,value
2023-03-14T00:00:32.610Z,7.20
2023-03-14T00:02:59.430Z,7.27
2023-03-14T00:05:25.883Z,7.32
2023-03-14T00:07:52.354Z,7.35
2023-03-14T00:10:19.569Z,7.35
2023-03-14T00:12:46.073Z,7.37
2023-03-14T00:15:13.557Z,7.37
2023-03-14T00:17:40.766Z,7.40
2023-03-14T00:20:12.188Z,7.39
2023-03-14T00:22:39.694Z,7.39
2023-03-14T00:25:09.271Z,7.41
2023-03-14T00:27:36.548Z,7.41
2023-03-14T00:30:03.139Z,7.39
2023-03-14T00:32:29.995Z,7.40
2023-03-14T00:34:56.812Z,7.39
2023-03-14T00:37:23.400Z,7.32
2023-03-14T00:39:52.592Z,7.27
2023-03-14T00:42:19.438Z,7.19
2023-03-14T00:44:45.850Z,7.12
2023-03-14T00:47:12.283Z,7.05
2023-03-14T00:49:39.102Z,6.97
2023-03-14T00:52:05.758Z,6.95
2023-03-14T00:54:32.213Z,6.91
2023-03-14T00:56:59.067Z,6.87
2023-03-14T00:59:25.468Z,6.87
2023-03-14T01:01:51.977Z,6.86
2023-03-14T01:04:18.770Z,6.86
2023-03-14T01:06:45.220Z,6.81
2023-03-14T01:09:12.081Z,6.79
2023-03-14T01:11:38.947Z,6.76
2023-03-14T01:14:05.821Z,6.73
2023-03-14T01:16:34.544Z,6.70
2023-03-14T01:19:01.611Z,6.70
2023-03-14T01:21:31.693Z,6.69
2023-03-14T01:23:59.466Z,6.74
2023-03-14T01:26:28.490Z,6.77
2023-03-14T01:28:56.304Z,6.75
2023-03-14T01:31:24.627Z,6.75
2023-03-14T01:33:51.821Z,6.75
2023-03-14T01:36:18.298Z,6.74
2023-03-14T01:38:45.477Z,6.74
2023-03-14T01:41:23.258Z,6.80
2023-03-14T01:43:50.350Z,6.80
2023-03-14T01:46:19.748Z,6.82
2023-03-14T01:48:53.597Z,6.81
2023-03-14T01:51:30.141Z,6.83
2023-03-14T01:54:06.697Z,6.86
2023-03-14T01:56:34.042Z,6.87
2023-03-14T01:59:03.791Z,6.86
2023-03-14T02:01:31.094Z,6.85
2023-03-14T02:04:02.426Z,6.86
2023-03-14T02:06:37.125Z,6.83
2023-03-14T02:09:05.077Z,6.83
2023-03-14T02:11:33.201Z,6.81
2023-03-14T02:14:00.883Z,6.81
2023-03-14T02:16:27.417Z,6.78
2023-03-14T02:18:54.444Z,6.74
2023-03-14T02:21:43.715Z,6.73
2023-03-14T02:24:23.872Z,6.73
2023-03-14T02:27:17.028Z,6.77
2023-03-14T02:29:53.344Z,6.77
2023-03-14T02:32:23.851Z,6.81
2023-03-14T02:34:56.474Z,6.80
2023-03-14T02:37:27.315Z,6.81
2023-03-14T02:39:53.932Z,6.80
2023-03-14T02:42:21.421Z,6.88
2023-03-14T02:45:11.447Z,6.87
2023-03-14T02:47:43.842Z,6.85
2023-03-14T02:50:24.627Z,6.84
2023-03-14T02:52:51.436Z,6.80
2023-03-14T02:55:25.915Z,6.78
2023-03-14T02:57:52.352Z,6.77
2023-03-14T03:00:19.541Z,6.82
2023-03-14T03:02:47.110Z,6.86
2023-03-14T03:05:13.556Z,6.85
2023-03-14T03:07:40.028Z,6.88
2023-03-14T03:10:07.371Z,6.95
2023-03-14T03:12:34.094Z,6.99
2023-03-14T03:15:00.527Z,6.95
2023-03-14T03:17:26.982Z,6.98
2023-03-14T03:19:53.956Z,6.96
2023-03-14T03:22:20.323Z,6.90
2023-03-14T03:24:46.736Z,6.89
2023-03-14T03:27:13.829Z,6.91
2023-03-14T03:29:40.235Z,6.85
2023-03-14T03:32:06.644Z,6.84
2023-03-14T03:34:33.382Z,6.86
2023-03-14T03:36:59.979Z,6.88
2023-03-14T03:39:26.400Z,6.83
2023-03-14T03:41:53.183Z,6.82
2023-03-14T03:44:19.590Z,6.75
2023-03-14T03:46:46.046Z,6.72
2023-03-14T03:49:13.408Z,6.73
2023-03-14T03:51:40.810Z,6.69
2023-03-14T03:54:07.254Z,6.70
2023-03-14T03:56:34.025Z,6.67
2023-03-14T03:59:00.464Z,6.62
2023-03-14T04:01:26.978Z,6.60
2023-03-14T04:03:54.101Z,6.58
2023-03-14T04:06:20.905Z,6.61
2023-03-14T04:08:47.388Z,6.66
2023-03-14T04:11:14.836Z,6.62
2023-03-14T04:13:42.093Z,6.61
2023-03-14T04:16:18.665Z,6.56
2023-03-14T04:18:45.121Z,6.50
2023-03-14T04:21:11.518Z,6.44
2023-03-14T04:23:38.364Z,6.46
2023-03-14T04:26:05.020Z,6.47
2023-03-14T04:28:31.640Z,6.41
2023-03-14T04:30:58.473Z,6.43
2023-03-14T04:33:25.009Z,6.43
2023-03-14T04:35:55.214Z,6.47
2023-03-14T04:38:22.216Z,6.49
2023-03-14T04:40:48.639Z,6.49
2023-03-14T04:43:15.118Z,6.51
2023-03-14T04:45:45.893Z,6.56
2023-03-14T04:48:13.412Z,6.56
2023-03-14T04:50:40.431Z,6.59
2023-03-14T04:53:07.724Z,6.61
2023-03-14T04:55:35.609Z,6.56
2023-03-14T04:58:02.057Z,6.61
2023-03-14T05:00:28.880Z,6.59
2023-03-14T05:02:55.372Z,6.58
2023-03-14T05:05:22.078Z,6.54
2023-03-14T05:07:49.066Z,6.52
2023-03-14T05:10:15.517Z,6.48
2023-03-14T05:12:42.023Z,6.51
2023-03-14T05:15:10.042Z,6.44
2023-03-14T05:17:36.558Z,6.42
2023-03-14T05:20:08.954Z,6.44
2023-03-14T05:22:35.966Z,6.44
2023-03-14T05:25:02.380Z,6.37
2023-03-14T05:27:28.755Z,6.36
2023-03-14T05:29:55.634Z,6.29
2023-03-14T05:32:22.164Z,6.26
2023-03-14T05:34:48.684Z,6.31
2023-03-14T05:37:15.499Z,6.27
2023-03-14T05:39:41.889Z,6.23
2023-03-14T05:42:08.398Z,6.24
2023-03-14T05:44:36.484Z,6.24
2023-03-14T05:47:02.892Z,6.31
2023-03-14T05:49:29.345Z,6.31
2023-03-14T05:51:56.446Z,6.30
2023-03-14T05:54:22.860Z,6.33
2023-03-14T05:56:49.263Z,6.35
2023-03-14T05:59:16.317Z,6.31
2023-03-14T06:01:42.842Z,6.31
2023-03-14T06:04:09.317Z,6.31
2023-03-14T06:06:36.131Z,6.30
2023-03-14T06:09:02.550Z,6.26
2023-03-14T06:11:28.952Z,6.28
2023-03-14T06:13:57.202Z,6.23
2023-03-14T06:16:23.809Z,6.29
2023-03-14T06:18:50.310Z,6.26
2023-03-14T06:21:19.241Z,6.28
2023-03-14T06:23:45.862Z,6.30
2023-03-14T06:26:12.723Z,6.33
2023-03-14T06:28:40.438Z,6.32
2023-03-14T06:31:07.064Z,6.31
2023-03-14T06:33:33.525Z,6.33
2023-03-14T06:36:00.948Z,6.32
2023-03-14T06:38:27.364Z,6.31
2023-03-14T06:40:53.797Z,6.34
2023-03-14T06:43:20.492Z,6.35
2023-03-14T06:45:47.149Z,6.38
2023-03-14T06:48:13.588Z,6.47
2023-03-14T06:50:40.042Z,6.43
2023-03-14T06:53:06.516Z,6.45
2023-03-14T06:55:33.392Z,6.47
2023-03-14T06:57:59.804Z,6.44
2023-03-14T07:00:26.201Z,6.41
2023-03-14T07:02:52.980Z,6.43
2023-03-14T07:05:19.415Z,6.46
2023-03-14T07:07:45.852Z,6.43
2023-03-14T07:10:13.019Z,6.47
2023-03-14T07:12:39.460Z,6.53
2023-03-14T07:15:17.427Z,6.54
2023-03-14T07:17:54.202Z,6.53
2023-03-14T07:20:20.747Z,6.59
2023-03-14T07:22:51.204Z,6.63
2023-03-14T07:25:18.933Z,6.68
2023-03-14T07:27:46.329Z,6.78
2023-03-14T07:30:13.542Z,6.81
2023-03-14T07:32:40.510Z,6.96
2023-03-14T07:35:07.768Z,7.12
2023-03-14T07:37:34.179Z,7.05
2023-03-14T07:40:00.963Z,6.99
2023-03-14T07:42:27.471Z,7.04
2023-03-14T07:44:53.884Z,7.17
2023-03-14T07:47:21.121Z,7.16
2023-03-14T07:49:47.565Z,7.31
2023-03-14T07:52:13.992Z,7.32
2023-03-14T07:54:40.995Z,7.34
2023-03-14T07:57:07.523Z,7.42
2023-03-14T07:59:33.936Z,7.67
2023-03-14T08:02:01.082Z,7.82
2023-03-14T08:04:28.362Z,7.90
2023-03-14T08:06:55.420Z,7.83
2023-03-14T08:09:22.275Z,7.92
2023-03-14T08:11:48.648Z,8.02
2023-03-14T08:14:15.046Z,8.16
2023-03-14T08:16:41.946Z,8.04
2023-03-14T08:19:08.368Z,8.08
2023-03-14T08:21:34.857Z,8.29
2023-03-14T08:24:02.568Z,8.60
2023-03-14T08:26:28.971Z,8.36
2023-03-14T08:28:55.438Z,8.30
2023-03-14T08:31:22.480Z,8.32
2023-03-14T08:33:49.033Z,8.40
2023-03-14T08:36:15.520Z,8.56
2023-03-14T08:38:43.888Z,8.74
2023-03-14T08:41:11.122Z,9.01
2023-03-14T08:43:37.683Z,9.18
2023-03-14T08:46:04.744Z,9.88
2023-03-14T08:48:31.566Z,10.27
2023-03-14T08:51:06.241Z,9.90
2023-03-14T08:53:32.622Z,9.63
2023-03-14T08:55:59.039Z,9.65
2023-03-14T08:58:25.639Z,9.73
2023-03-14T09:00:52.659Z,9.63
2023-03-14T09:03:19.227Z,9.81
2023-03-14T09:05:46.379Z,9.80
2023-03-14T09:08:12.715Z,10.21
2023-03-14T09:10:39.530Z,9.95
2023-03-14T09:13:06.454Z,10.32
2023-03-14T09:15:33.250Z,10.49
2023-03-14T09:18:00.286Z,10.39
2023-03-14T09:20:27.149Z,10.63
2023-03-14T09:22:54.897Z,10.52
2023-03-14T09:25:21.339Z,10.90
2023-03-14T09:27:48.869Z,10.67
2023-03-14T09:30:15.393Z,11.36
2023-03-14T09:32:41.967Z,10.65
2023-03-14T09:35:09.155Z,11.43
2023-03-14T09:37:35.575Z,10.75
2023-03-14T09:40:06.770Z,10.48
2023-03-14T09:42:34.044Z,10.90
2023-03-14T09:45:03.848Z,11.39
2023-03-14T09:47:30.766Z,11.55
2023-03-14T09:49:57.543Z,11.59
2023-03-14T09:52:32.458Z,10.92
2023-03-14T09:55:15.970Z,11.61
2023-03-14T09:57:43.054Z,11.61
2023-03-14T10:00:17.956Z,12.33
2023-03-14T10:02:52.047Z,12.12
2023-03-14T10:05:23.537Z,12.72
2023-03-14T10:07:50.204Z,13.57
2023-03-14T10:10:21.896Z,12.51
2023-03-14T10:12:57.219Z,11.59
2023-03-14T10:15:32.241Z,11.38
2023-03-14T10:18:02.066Z,11.13
2023-03-14T10:20:34.587Z,10.78
2023-03-14T10:23:02.547Z,10.53
2023-03-14T10:25:36.320Z,10.50
2023-03-14T10:28:06.801Z,10.52
2023-03-14T10:30:48.062Z,10.88
2023-03-14T10:33:30.750Z,10.63
2023-03-14T10:36:03.971Z,10.99
2023-03-14T10:38:37.112Z,11.06
2023-03-14T10:41:37.061Z,11.49
2023-03-14T10:44:13.869Z,12.63
2023-03-14T10:46:40.940Z,12.95
2023-03-14T10:49:07.734Z,12.62
2023-03-14T10:51:34.313Z,11.92
2023-03-14T10:54:04.944Z,11.11
2023-03-14T10:56:37.835Z,11.01
2023-03-14T10:59:12.143Z,10.87
2023-03-14T11:01:53.963Z,10.82
2023-03-14T11:04:59.577Z,11.00
2023-03-14T11:07:45.834Z,11.35
2023-03-14T11:10:36.395Z,11.09
2023-03-14T11:13:17.820Z,11.03
2023-03-14T11:16:06.246Z,11.15
2023-03-14T11:18:41.774Z,11.07
2023-03-14T11:21:28.763Z,11.12
2023-03-14T11:24:36.648Z,11.81
2023-03-14T11:27:21.731Z,12.13
2023-03-14T11:29:48.010Z,12.70
2023-03-14T11:32:18.392Z,12.98
2023-03-14T11:34:56.189Z,12.01
2023-03-14T11:37:34.236Z,11.77
2023-03-14T11:40:14.264Z,11.61
2023-03-14T11:42:44.946Z,11.59
2023-03-14T11:45:28.806Z,11.71
2023-03-14T11:48:07.720Z,11.16
2023-03-14T11:50:37.398Z,11.14
2023-03-14T11:53:37.450Z,11.08
2023-03-14T11:56:05.276Z,10.92
2023-03-14T11:58:35.818Z,11.00
2023-03-14T12:01:12.475Z,11.26
2023-03-14T12:03:57.335Z,11.18
2023-03-14T12:06:50.424Z,11.24
2023-03-14T12:09:21.222Z,10.80
2023-03-14T12:11:58.431Z,10.72
2023-03-14T12:14:28.998Z,10.61
2023-03-14T12:17:10.894Z,10.64
2023-03-14T12:19:40.158Z,10.78
2023-03-14T12:22:06.488Z,10.69
2023-03-14T12:24:36.683Z,10.87
2023-03-14T12:27:07.019Z,10.61
2023-03-14T12:29:33.545Z,10.93
2023-03-14T12:32:24.911Z,10.67
2023-03-14T12:34:51.507Z,10.23
2023-03-14T12:37:49.339Z,9.85
2023-03-14T12:40:27.314Z,9.68
2023-03-14T12:43:02.812Z,9.44
2023-03-14T12:45:33.365Z,9.26
2023-03-14T12:48:18.974Z,9.46
2023-03-14T12:50:47.916Z,9.21
2023-03-14T12:53:54.218Z,9.04
2023-03-14T12:56:25.874Z,8.75
2023-03-14T12:59:01.431Z,8.57
2023-03-14T13:01:28.083Z,8.49
2023-03-14T13:04:04.250Z,8.77
2023-03-14T13:06:55.127Z,8.40
2023-03-14T13:09:32.480Z,8.39
2023-03-14T13:12:15.088Z,8.31
2023-03-14T13:14:48.073Z,8.25
2023-03-14T13:17:34.049Z,8.19
2023-03-14T13:20:22.572Z,8.03
2023-03-14T13:22:51.056Z,8.07
2023-03-14T13:25:22.091Z,7.96
2023-03-14T13:27:49.162Z,7.92
2023-03-14T13:30:23.011Z,7.64
2023-03-14T13:32:50.918Z,7.32
2023-03-14T13:35:18.952Z,7.41
2023-03-14T13:37:45.834Z,7.50
2023-03-14T13:40:21.396Z,7.58
2023-03-14T13:42:49.134Z,7.67
2023-03-14T13:45:15.684Z,7.86
2023-03-14T13:47:42.310Z,7.79
2023-03-14T13:50:20.176Z,7.71
2023-03-14T13:52:47.255Z,8.06
2023-03-14T13:55:18.979Z,8.15
2023-03-14T13:57:56.034Z,8.53
2023-03-14T14:00:28.009Z,8.62
2023-03-14T14:02:57.049Z,8.87
2023-03-14T14:05:26.517Z,8.78
2023-03-14T14:07:53.252Z,8.74
2023-03-14T14:10:21.353Z,8.93
2023-03-14T14:13:03.830Z,8.89
2023-03-14T14:15:36.395Z,9.01
2023-03-14T14:18:06.586Z,8.97
2023-03-14T14:20:39.908Z,9.03
2023-03-14T14:23:11.396Z,8.78
2023-03-14T14:25:38.721Z,8.69
2023-03-14T14:28:35.000Z,8.40
2023-03-14T14:31:07.105Z,8.36
2023-03-14T14:33:45.482Z,7.95
2023-03-14T14:36:19.498Z,7.98
2023-03-14T14:39:03.734Z,7.79
2023-03-14T14:41:32.793Z,7.95
2023-03-14T14:44:00.788Z,7.84
2023-03-14T14:46:31.318Z,7.83
2023-03-14T14:49:20.330Z,7.68
2023-03-14T14:51:51.802Z,8.04
2023-03-14T14:54:20.825Z,7.96
2023-03-14T14:56:53.590Z,7.83
2023-03-14T14:59:29.731Z,7.76
2023-03-14T15:02:01.674Z,7.62
2023-03-14T15:04:30.757Z,7.49
2023-03-14T15:06:57.380Z,7.34
2023-03-14T15:09:25.497Z,7.30
2023-03-14T15:11:52.010Z,7.27
2023-03-14T15:14:18.805Z,7.26
2023-03-14T15:16:45.364Z,7.38
2023-03-14T15:19:24.303Z,7.23
2023-03-14T15:21:53.736Z,7.30
2023-03-14T15:24:20.167Z,7.23
2023-03-14T15:26:46.657Z,7.15
2023-03-14T15:29:13.541Z,7.25
2023-03-14T15:31:40.787Z,7.24
2023-03-14T15:34:07.296Z,7.11
2023-03-14T15:36:36.983Z,7.33
2023-03-14T15:39:06.537Z,7.26
2023-03-14T15:41:33.360Z,7.06
2023-03-14T15:44:00.178Z,6.96
2023-03-14T15:46:27.750Z,6.66
2023-03-14T15:48:55.076Z,6.77
2023-03-14T15:51:21.924Z,6.79
2023-03-14T15:53:48.977Z,6.62
2023-03-14T15:56:18.547Z,6.67
2023-03-14T15:58:47.486Z,6.50
2023-03-14T16:01:17.393Z,6.42
2023-03-14T16:03:45.895Z,6.40
2023-03-14T16:06:13.033Z,6.26
2023-03-14T16:08:39.989Z,6.14
2023-03-14T16:11:06.433Z,6.10
2023-03-14T16:13:33.309Z,6.12
2023-03-14T16:16:02.977Z,6.19
2023-03-14T16:18:32.252Z,6.18
2023-03-14T16:21:00.663Z,6.36
2023-03-14T16:23:29.094Z,6.33
2023-03-14T16:25:56.378Z,6.24
2023-03-14T16:28:23.898Z,6.55
2023-03-14T16:30:50.380Z,6.63
2023-03-14T16:33:17.612Z,6.84
2023-03-14T16:35:55.683Z,6.71
2023-03-14T16:38:23.655Z,6.82
2023-03-14T16:41:10.221Z,6.63
2023-03-14T16:43:39.465Z,6.80
2023-03-14T16:46:08.648Z,6.84
2023-03-14T16:48:35.365Z,6.76
2023-03-14T16:51:01.816Z,6.78
2023-03-14T16:53:30.030Z,6.75
2023-03-14T16:55:57.596Z,6.81
2023-03-14T16:58:24.060Z,6.55
2023-03-14T17:00:50.874Z,6.60
2023-03-14T17:03:18.407Z,6.54
2023-03-14T17:05:49.582Z,6.38
2023-03-14T17:08:17.940Z,6.02
2023-03-14T17:10:44.901Z,6.06
2023-03-14T17:13:11.459Z,5.79
2023-03-14T17:15:38.391Z,5.62
2023-03-14T17:18:05.826Z,5.58
2023-03-14T17:20:32.621Z,5.59
2023-03-14T17:22:59.545Z,5.63
2023-03-14T17:25:26.018Z,5.50
2023-03-14T17:27:52.515Z,5.32
2023-03-14T17:30:19.724Z,5.40
2023-03-14T17:32:46.216Z,5.27
2023-03-14T17:35:12.629Z,5.17
2023-03-14T17:37:39.435Z,5.08
2023-03-14T17:40:06.446Z,5.02
2023-03-14T17:42:33.248Z,4.85
2023-03-14T17:44:59.785Z,4.95
2023-03-14T17:47:26.535Z,4.88
2023-03-14T17:49:52.944Z,4.83
2023-03-14T17:52:19.506Z,4.88
2023-03-14T17:54:46.211Z,4.86
2023-03-14T17:57:12.635Z,4.82
2023-03-14T17:59:39.084Z,4.82
2023-03-14T18:02:09.884Z,4.82
2023-03-14T18:04:36.524Z,4.81
2023-03-14T18:07:03.501Z,4.87
2023-03-14T18:09:30.546Z,4.89
2023-03-14T18:12:06.974Z,4.92
2023-03-14T18:14:38.872Z,5.05
2023-03-14T18:17:05.895Z,5.01
2023-03-14T18:19:32.723Z,5.00
2023-03-14T18:21:59.892Z,5.18
2023-03-14T18:24:28.721Z,5.29
2023-03-14T18:26:55.587Z,5.31
2023-03-14T18:29:22.347Z,5.29
2023-03-14T18:31:48.813Z,5.30
2023-03-14T18:34:15.299Z,5.29
2023-03-14T18:36:42.277Z,5.39
2023-03-14T18:39:10.221Z,5.56
2023-03-14T18:41:37.179Z,5.56
2023-03-14T18:44:04.298Z,5.46
2023-03-14T18:46:30.842Z,5.22
2023-03-14T18:48:57.900Z,5.41
2023-03-14T18:51:26.697Z,5.28
2023-03-14T18:54:02.865Z,5.22
2023-03-14T18:56:35.005Z,4.82
2023-03-14T18:59:01.411Z,4.56
2023-03-14T19:01:31.057Z,4.46
2023-03-14T19:03:59.769Z,4.33
2023-03-14T19:06:28.370Z,4.31
2023-03-14T19:08:54.794Z,4.19
2023-03-14T19:11:21.732Z,4.00
2023-03-14T19:13:48.190Z,3.86
2023-03-14T19:16:16.179Z,3.87
2023-03-14T19:18:43.420Z,3.88
2023-03-14T19:21:12.763Z,3.81
2023-03-14T19:23:41.491Z,3.98
2023-03-14T19:26:10.385Z,4.03
2023-03-14T19:28:36.876Z,4.03
2023-03-14T19:31:05.142Z,3.60
2023-03-14T19:33:32.840Z,3.46
2023-03-14T19:35:59.736Z,3.62
2023-03-14T19:38:26.254Z,3.74
2023-03-14T19:40:58.391Z,3.82
2023-03-14T19:43:25.691Z,3.82
2023-03-14T19:45:52.238Z,3.67
2023-03-14T19:48:19.070Z,3.51
2023-03-14T19:50:45.529Z,3.31
2023-03-14T19:53:11.982Z,3.19
2023-03-14T19:55:39.926Z,3.08
2023-03-14T19:58:06.402Z,2.95
2023-03-14T20:00:32.895Z,2.97
2023-03-14T20:03:00.119Z,2.96
2023-03-14T20:05:27.144Z,2.86
2023-03-14T20:07:53.563Z,2.91
2023-03-14T20:10:24.656Z,2.85
2023-03-14T20:12:51.656Z,2.73
2023-03-14T20:15:20.214Z,2.74
2023-03-14T20:17:48.563Z,2.68
2023-03-14T20:20:16.070Z,2.65
2023-03-14T20:22:42.955Z,2.63
2023-03-14T20:25:12.127Z,2.65
2023-03-14T20:27:39.578Z,2.76
2023-03-14T20:30:13.137Z,2.75
2023-03-14T20:32:40.976Z,2.78
2023-03-14T20:35:10.151Z,2.78
2023-03-14T20:37:37.008Z,2.70
2023-03-14T20:40:07.442Z,2.70
2023-03-14T20:42:34.760Z,2.60
2023-03-14T20:45:01.545Z,2.48
2023-03-14T20:47:28.195Z,2.45
2023-03-14T20:49:54.613Z,2.48
2023-03-14T20:52:22.703Z,2.46
2023-03-14T20:54:49.172Z,2.51
2023-03-14T20:57:16.586Z,2.49
2023-03-14T20:59:43.386Z,2.40
2023-03-14T21:02:10.823Z,2.29
2023-03-14T21:04:37.760Z,2.17
2023-03-14T21:07:04.988Z,2.17
2023-03-14T21:09:31.632Z,2.17
2023-03-14T21:11:58.152Z,2.09
2023-03-14T21:14:25.336Z,2.08
2023-03-14T21:16:57.048Z,2.07
2023-03-14T21:19:31.062Z,2.00
2023-03-14T21:21:58.878Z,1.99
2023-03-14T21:24:25.722Z,1.81
2023-03-14T21:26:53.110Z,1.79
2023-03-14T21:29:23.942Z,1.75
2023-03-14T21:31:51.184Z,1.68
2023-03-14T21:34:21.465Z,1.66
2023-03-14T21:36:48.992Z,1.69
2023-03-14T21:39:15.594Z,1.62
2023-03-14T21:41:42.407Z,1.59
2023-03-14T21:44:08.819Z,1.64
2023-03-14T21:46:37.025Z,1.76
2023-03-14T21:49:04.209Z,1.90
2023-03-14T21:51:35.631Z,2.00
2023-03-14T21:54:02.071Z,2.04
2023-03-14T21:56:28.925Z,2.08
2023-03-14T21:59:00.247Z,2.02
2023-03-14T22:01:26.668Z,2.03
2023-03-14T22:03:53.563Z,2.11
2023-03-14T22:06:21.140Z,2.19
2023-03-14T22:08:47.586Z,2.24
2023-03-14T22:11:14.010Z,2.43
2023-03-14T22:13:40.842Z,2.48
2023-03-14T22:16:08.319Z,2.54
2023-03-14T22:18:34.950Z,2.56
2023-03-14T22:21:01.565Z,2.49
2023-03-14T22:23:28.015Z,2.45
2023-03-14T22:25:54.448Z,2.43
2023-03-14T22:28:21.269Z,2.42
2023-03-14T22:30:51.423Z,2.45
2023-03-14T22:33:19.018Z,2.40
2023-03-14T22:35:50.608Z,2.45
2023-03-14T22:38:17.505Z,2.39
2023-03-14T22:40:44.127Z,2.25
2023-03-14T22:43:10.946Z,2.28
2023-03-14T22:45:37.436Z,2.09
2023-03-14T22:48:04.113Z,1.97
2023-03-14T22:50:30.972Z,1.80
2023-03-14T22:52:59.154Z,1.71
2023-03-14T22:55:25.996Z,1.60
2023-03-14T22:57:53.522Z,1.56
2023-03-14T23:00:21.381Z,1.44
2023-03-14T23:02:48.084Z,1.41
2023-03-14T23:05:14.541Z,1.37
2023-03-14T23:07:41.107Z,1.30
2023-03-14T23:10:08.559Z,1.32
2023-03-14T23:12:36.052Z,1.33
2023-03-14T23:15:02.489Z,1.33
2023-03-14T23:17:28.947Z,1.29
2023-03-14T23:19:55.986Z,1.30
2023-03-14T23:22:22.390Z,1.26
2023-03-14T23:24:48.952Z,1.26
2023-03-14T23:27:18.766Z,1.28
2023-03-14T23:29:49.488Z,1.25
2023-03-14T23:32:15.967Z,1.16
2023-03-14T23:34:43.746Z,1.15
2023-03-14T23:37:13.893Z,1.13
2023-03-14T23:39:41.526Z,1.15
2023-03-14T23:42:08.598Z,1.20
2023-03-14T23:44:35.320Z,1.20
2023-03-14T23:47:02.155Z,1.23
2023-03-14T23:49:28.548Z,1.18
2023-03-14T23:51:55.320Z,1.18
2023-03-14T23:54:22.275Z,1.22
2023-03-14T23:56:48.782Z,1.24
2023-03-14T23:59:15.264Z,1.41
